Time;durP1;ratioP1;P1;durP2;ratioP2;P2;SDS_P1;SDS_P2;PMS_P1;PMS_P2;Temp;Humidity;BMP_temperature;BMP_pressure;BME280_temperature;BME280_humidity;BME280_pressure;Samples;Min_cycle;Max_cycle;Signal;HPM_P1;HPM_P2
2021/09/23 00:00:04;;;;;;;4.93;4.43;;;;;;;11.99;83.07;97482.56;5114908;28;20406;-62
2021/09/23 00:05:19;;;;;;;6.18;4.95;;;;;;;11.94;83.32;97482.44;5115086;28;20404;-62
2021/09/23 00:07:47;;;;;;;5.20;4.70;;;;;;;12.03;83.07;97487.22;5115573;28;20452;-62
2021/09/23 00:10:21;;;;;;;5.57;4.68;;;;;;;12.02;83.42;97496.09;5115576;28;20457;-62
2021/09/23 00:12:47;;;;;;;6.13;5.22;;;;;;;12.01;83.16;97498.94;5114940;28;20801;-62
2021/09/23 00:15:15;;;;;;;5.40;4.88;;;;;;;11.95;83.41;97491.94;5114408;28;20399;-62
2021/09/23 00:17:47;;;;;;;7.18;5.25;;;;;;;11.94;83.59;97493.75;5115345;28;20385;-62
2021/09/23 00:20:15;;;;;;;7.87;5.10;;;;;;;11.98;83.20;97492.28;5114602;28;20384;-62
2021/09/23 00:22:40;;;;;;;6.28;5.13;;;;;;;11.85;83.87;97491.63;5115004;28;20909;-62
2021/09/23 00:25:06;;;;;;;5.80;4.72;;;;;;;11.80;84.12;97481.78;5114982;28;20389;-62
2021/09/23 00:27:31;;;;;;;5.77;4.73;;;;;;;11.79;84.12;97479.34;5114794;28;20873;-62
2021/09/23 00:29:56;;;;;;;5.45;4.95;;;;;;;11.79;84.60;97477.53;5113763;28;21158;-62
2021/09/23 00:32:22;;;;;;;6.10;5.50;;;;;;;11.70;84.72;97478.81;5114981;28;20463;-62
2021/09/23 00:34:47;;;;;;;6.13;5.30;;;;;;;11.63;84.86;97467.56;5113921;28;20869;-62
2021/09/23 00:37:13;;;;;;;6.00;5.40;;;;;;;11.60;85.41;97460.09;5114338;28;20493;-62
2021/09/23 00:39:38;;;;;;;5.80;5.23;;;;;;;11.52;85.72;97449.88;5114434;28;20384;-62
2021/09/23 00:42:04;;;;;;;5.93;5.32;;;;;;;11.59;85.79;97448.00;5113600;28;20438;-62
2021/09/23 00:44:29;;;;;;;7.20;5.93;;;;;;;11.42;86.39;97450.38;5077671;28;20409;-62
2021/09/23 00:46:55;;;;;;;8.77;5.75;;;;;;;11.46;86.09;97445.50;5095965;28;20392;-62
2021/09/23 00:49:20;;;;;;;6.27;5.67;;;;;;;11.46;86.32;97451.56;5113919;28;20457;-62
2021/09/23 00:51:46;;;;;;;6.10;5.50;;;;;;;11.41;86.47;97451.41;5114300;28;20372;-62
2021/09/23 00:54:12;;;;;;;6.10;5.50;;;;;;;11.37;86.89;97455.44;5113601;28;20407;-62
2021/09/23 00:56:37;;;;;;;6.25;5.65;;;;;;;11.39;86.49;97460.50;5113640;28;20416;-62
2021/09/23 00:59:04;;;;;;;7.00;5.90;;;;;;;11.35;86.81;97454.88;5114016;28;20765;-62
2021/09/23 01:01:29;;;;;;;7.60;6.00;;;;;;;11.36;86.82;97460.94;5113458;28;20423;-62
2021/09/23 01:03:55;;;;;;;6.10;5.60;;;;;;;11.31;87.11;97458.97;5113915;28;20427;-62
2021/09/23 01:06:21;;;;;;;7.05;5.78;;;;;;;11.40;86.76;97454.22;5113656;28;20384;-62
2021/09/23 01:08:58;;;;;;;6.43;5.82;;;;;;;11.37;86.61;97459.94;5113927;28;20820;-62
2021/09/23 01:11:27;;;;;;;7.65;5.70;;;;;;;11.34;87.40;97457.72;5113528;28;20441;-62
2021/09/23 01:13:53;;;;;;;6.17;5.50;;;;;;;11.35;87.13;97448.81;5113481;28;20385;-62
2021/09/23 01:16:18;;;;;;;6.50;5.87;;;;;;;11.28;87.32;97448.88;5077816;28;20490;-61
2021/09/23 01:18:44;;;;;;;7.03;6.10;;;;;;;11.25;87.63;97446.69;5113590;28;20392;-61
2021/09/23 01:21:10;;;;;;;7.60;5.90;;;;;;;11.23;87.42;97454.78;5095481;28;20858;-61
2021/09/23 01:23:45;;;;;;;6.50;5.90;;;;;;;11.27;87.49;97455.94;5113653;28;20407;-61
2021/09/23 01:26:19;;;;;;;7.25;6.55;;;;;;;11.30;87.31;97456.53;5112314;28;20782;-61
2021/09/23 01:28:45;;;;;;;7.55;6.30;;;;;;;11.22;88.15;97449.72;5113299;28;20864;-62
2021/09/23 01:31:10;;;;;;;8.10;6.20;;;;;;;11.22;87.43;97444.47;5095074;28;20407;-62
2021/09/23 01:33:37;;;;;;;7.80;6.40;;;;;;;11.24;87.98;97445.88;5113103;28;20387;-62
2021/09/23 01:36:03;;;;;;;7.03;5.72;;;;;;;11.15;88.25;97444.53;5113015;28;20419;-61
2021/09/23 01:38:29;;;;;;;7.33;6.00;;;;;;;11.13;88.58;97441.34;5112909;28;20388;-61
2021/09/23 01:40:55;;;;;;;8.05;6.38;;;;;;;11.17;87.96;97447.75;5113119;28;20521;-62
2021/09/23 01:43:22;;;;;;;7.63;6.57;;;;;;;11.14;88.22;97448.19;5111949;28;20398;-61
2021/09/23 01:45:48;;;;;;;8.88;7.18;;;;;;;11.14;87.95;97444.75;5094236;28;20471;-61
2021/09/23 01:48:13;;;;;;;8.95;7.20;;;;;;;11.12;88.37;97444.97;5113085;28;20537;-61
2021/09/23 01:50:39;;;;;;;8.27;6.90;;;;;;;11.15;88.16;97443.72;5113083;28;20442;-62
2021/09/23 01:53:04;;;;;;;7.05;6.10;;;;;;;11.14;88.30;97447.38;5112618;28;20392;-61
2021/09/23 01:55:30;;;;;;;7.67;6.97;;;;;;;11.10;88.37;97452.25;5112104;28;20424;-61
2021/09/23 01:57:55;;;;;;;7.00;6.30;;;;;;;11.11;88.12;97443.34;5112525;28;20388;-62
2021/09/23 02:00:21;;;;;;;9.03;6.40;;;;;;;11.11;88.23;97439.94;5113319;28;20967;-62
2021/09/23 02:02:48;;;;;;;7.70;6.63;;;;;;;11.07;87.98;97431.69;5112191;28;20396;-61
2021/09/23 02:05:14;;;;;;;7.00;6.30;;;;;;;11.07;87.82;97436.94;5112207;28;20459;-62
2021/09/23 02:07:39;;;;;;;6.97;6.13;;;;;;;11.03;88.67;97433.13;5112536;28;20876;-61
2021/09/23 02:10:05;;;;;;;6.85;6.15;;;;;;;11.00;88.31;97433.56;5111525;28;20448;-61
2021/09/23 02:12:30;;;;;;;6.70;6.00;;;;;;;11.02;88.46;97430.72;5112649;28;20504;-61
2021/09/23 02:14:58;;;;;;;6.70;6.10;;;;;;;11.05;87.97;97428.47;5112769;28;20388;-62
2021/09/23 02:17:23;;;;;;;6.70;5.80;;;;;;;11.06;87.93;97427.47;5112048;28;21125;-62
2021/09/23 02:19:49;;;;;;;6.83;5.80;;;;;;;11.02;88.44;97428.09;5111935;28;20384;-61
2021/09/23 02:22:14;;;;;;;7.07;6.18;;;;;;;10.89;88.55;97423.75;5112425;27;20377;-61
2021/09/23 02:24:40;;;;;;;8.00;6.57;;;;;;;10.99;88.80;97418.81;5111832;28;20944;-62
2021/09/23 02:27:05;;;;;;;7.55;6.15;;;;;;;11.04;88.63;97407.69;5112679;28;20396;-61
2021/09/23 02:29:31;;;;;;;8.10;6.50;;;;;;;11.02;87.82;97407.13;5094307;28;20437;-61
2021/09/23 02:31:57;;;;;;;7.53;6.57;;;;;;;10.99;88.33;97403.09;5112039;28;20440;-61
2021/09/23 02:34:22;;;;;;;8.65;6.25;;;;;;;11.04;87.89;97403.25;5112341;28;20392;-61
2021/09/23 02:36:48;;;;;;;8.47;6.37;;;;;;;11.03;87.73;97406.91;5111813;28;20877;-61
2021/09/23 02:39:13;;;;;;;8.90;5.93;;;;;;;10.97;87.74;97399.88;5112342;28;20456;-61
2021/09/23 02:41:39;;;;;;;8.27;7.00;;;;;;;10.96;87.91;97393.03;5112072;28;20379;-61
2021/09/23 02:44:04;;;;;;;8.50;6.47;;;;;;;10.93;88.26;97390.81;5111657;28;20880;-61
2021/09/23 02:46:32;;;;;;;8.43;6.60;;;;;;;10.93;88.50;97387.41;5111983;28;20408;-61
2021/09/23 02:48:57;;;;;;;10.82;9.20;;;;;;;10.97;87.74;97383.34;5111430;28;20418;-61
2021/09/23 02:51:23;;;;;;;11.70;9.68;;;;;;;10.86;88.68;97384.84;5111833;28;20377;-61
2021/09/23 02:53:49;;;;;;;10.90;9.53;;;;;;;10.87;88.63;97381.19;5112079;28;20388;-61
2021/09/23 02:56:14;;;;;;;9.80;8.80;;;;;;;10.82;88.80;97367.91;5111151;28;20419;-60
2021/09/23 02:58:39;;;;;;;9.30;8.40;;;;;;;10.75;89.47;97365.38;5111866;28;20396;-60
2021/09/23 03:01:05;;;;;;;7.80;7.03;;;;;;;10.71;89.53;97358.09;5112076;28;20802;-61
2021/09/23 03:03:30;;;;;;;9.35;7.47;;;;;;;10.74;89.99;97357.69;5111208;28;20388;-61
2021/09/23 03:05:56;;;;;;;11.17;7.50;;;;;;;10.65;90.19;97351.09;5111526;28;20471;-61
2021/09/23 03:08:23;;;;;;;9.10;7.60;;;;;;;10.68;89.77;97351.50;5111157;28;20384;-60
2021/09/23 03:10:48;;;;;;;7.70;6.93;;;;;;;10.69;89.70;97354.91;5111157;28;20432;-61
2021/09/23 03:13:14;;;;;;;8.50;7.35;;;;;;;10.70;89.62;97357.31;5111802;28;20439;-60
2021/09/23 03:15:39;;;;;;;8.95;7.82;;;;;;;10.60;90.27;97359.59;5111577;28;20411;-61
2021/09/23 03:18:05;;;;;;;9.23;7.87;;;;;;;10.57;90.74;97349.56;5092575;28;20450;-61
2021/09/23 03:20:30;;;;;;;9.43;7.60;;;;;;;10.53;91.02;97345.75;5111390;28;20408;-61
2021/09/23 03:22:56;;;;;;;9.07;8.07;;;;;;;10.54;90.93;97338.66;5111520;28;20392;-61
2021/09/23 03:25:21;;;;;;;9.52;8.27;;;;;;;10.53;91.52;97352.81;5085135;28;20404;-60
2021/09/23 03:27:48;;;;;;;10.40;8.75;;;;;;;10.54;91.45;97344.72;5111449;28;20381;-61
2021/09/23 03:30:14;;;;;;;9.75;7.90;;;;;;;10.53;90.87;97356.25;5111114;28;20421;-60
2021/09/23 03:32:39;;;;;;;10.18;8.38;;;;;;;10.52;91.10;97348.59;5110911;28;20392;-61
2021/09/23 03:35:05;;;;;;;8.77;7.87;;;;;;;10.48;91.40;97336.94;5111423;28;20380;-61
2021/09/23 03:37:30;;;;;;;10.67;7.77;;;;;;;10.45;91.22;97332.09;5111311;28;20492;-61
2021/09/23 03:39:56;;;;;;;10.43;8.23;;;;;;;10.48;90.84;97321.19;5111015;28;20392;-61
2021/09/23 03:42:21;;;;;;;9.57;8.47;;;;;;;10.47;91.05;97316.97;5111267;28;20467;-60
2021/09/23 03:44:47;;;;;;;10.17;8.53;;;;;;;10.40;91.64;97320.44;5111066;28;20403;-61
2021/09/23 03:47:14;;;;;;;11.30;9.27;;;;;;;10.43;92.47;97327.06;5093031;28;20392;-61
2021/09/23 03:49:39;;;;;;;14.02;11.57;;;;;;;10.39;91.92;97328.50;5111230;28;20427;-60
2021/09/23 03:52:05;;;;;;;18.17;14.30;;;;;;;10.41;92.22;97329.91;5093098;28;20393;-60
2021/09/23 03:54:30;;;;;;;14.67;13.17;;;;;;;10.45;92.01;97334.72;5111083;28;20483;-60
2021/09/23 03:56:56;;;;;;;14.48;10.88;;;;;;;10.42;91.98;97328.09;5111088;28;20396;-60
2021/09/23 03:59:21;;;;;;;12.33;10.27;;;;;;;10.33;92.39;97338.00;5111015;28;20471;-60
2021/09/23 04:01:48;;;;;;;12.57;10.17;;;;;;;10.38;91.90;97332.94;5111601;28;20383;-61
2021/09/23 04:04:14;;;;;;;12.68;10.43;;;;;;;10.40;91.98;97330.91;5111386;28;20400;-62
2021/09/23 04:06:42;;;;;;;11.52;9.63;;;;;;;10.41;91.49;97329.09;5111427;28;20383;-61
2021/09/23 04:09:09;;;;;;;11.33;9.50;;;;;;;10.41;91.44;97323.88;5110804;28;20438;-60
2021/09/23 04:11:35;;;;;;;10.20;9.20;;;;;;;10.39;91.34;97320.63;5110976;28;20392;-60
2021/09/23 04:14:01;;;;;;;10.30;9.23;;;;;;;10.35;92.05;97324.72;5110690;28;20740;-60
2021/09/23 04:16:26;;;;;;;11.90;9.40;;;;;;;10.30;91.83;97314.06;5110882;28;20408;-60
2021/09/23 04:18:51;;;;;;;11.03;8.90;;;;;;;10.31;91.76;97313.81;5111202;28;20402;-61
2021/09/23 04:21:17;;;;;;;13.18;9.55;;;;;;;10.22;92.49;97312.47;5113998;28;20714;-60
2021/09/23 04:23:42;;;;;;;11.70;9.40;;;;;;;10.21;92.39;97313.50;5114575;28;20385;-61
2021/09/23 04:26:07;;;;;;;12.17;9.57;;;;;;;10.26;92.38;97305.81;5114739;28;20396;-60
2021/09/23 04:28:33;;;;;;;14.23;10.90;;;;;;;10.23;92.36;97300.19;5114940;28;20416;-60
2021/09/23 04:30:58;;;;;;;14.50;12.20;;;;;;;10.19;92.89;97288.53;5113878;28;22113;-61
2021/09/23 04:33:25;;;;;;;14.70;12.32;;;;;;;10.11;93.08;97284.31;5114346;28;20388;-60
2021/09/23 04:35:51;;;;;;;11.68;10.13;;;;;;;10.10;93.27;97287.13;5114149;28;20408;-60
2021/09/23 04:38:18;;;;;;;13.60;10.93;;;;;;;10.01;93.54;97286.59;5114599;28;20400;-60
2021/09/23 04:40:44;;;;;;;13.30;10.75;;;;;;;10.05;93.92;97286.97;5114142;28;20411;-60
2021/09/23 04:43:10;;;;;;;13.68;10.60;;;;;;;9.89;94.79;97280.41;5113579;28;20385;-60
2021/09/23 04:45:35;;;;;;;14.70;11.38;;;;;;;9.96;95.12;97276.75;5113625;28;20903;-61
2021/09/23 04:48:02;;;;;;;14.57;11.90;;;;;;;9.96;95.05;97275.94;5114406;28;20388;-60
2021/09/23 04:50:27;;;;;;;15.13;11.95;;;;;;;9.95;95.49;97279.56;5113898;28;20859;-60
2021/09/23 04:52:53;;;;;;;14.97;13.20;;;;;;;9.98;95.38;97271.28;5113376;28;20420;-61
2021/09/23 04:55:18;;;;;;;17.35;13.70;;;;;;;10.00;95.87;97270.06;5113333;28;20488;-60
2021/09/23 04:57:44;;;;;;;15.18;12.43;;;;;;;9.98;95.85;97277.31;5114297;28;20416;-60
2021/09/23 05:00:10;;;;;;;16.03;12.70;;;;;;;10.07;95.82;97272.66;5114204;28;20388;-60
2021/09/23 05:02:35;;;;;;;15.50;13.43;;;;;;;10.09;95.17;97277.66;5113444;28;20840;-60
2021/09/23 05:05:01;;;;;;;14.80;12.95;;;;;;;10.10;95.50;97274.03;5113489;28;20404;-60
2021/09/23 05:07:27;;;;;;;14.77;13.00;;;;;;;10.11;95.46;97260.75;5113644;28;20390;-60
2021/09/23 05:09:52;;;;;;;16.17;12.33;;;;;;;10.00;95.71;97261.41;5113079;28;20776;-60
2021/09/23 05:12:18;;;;;;;15.77;12.23;;;;;;;10.03;95.52;97261.78;5113236;28;20392;-60
2021/09/23 05:14:43;;;;;;;13.10;11.70;;;;;;;10.06;95.33;97268.44;5113658;28;20415;-60
2021/09/23 05:17:08;;;;;;;12.33;11.03;;;;;;;10.12;94.62;97274.63;5113449;28;20468;-60
2021/09/23 05:19:34;;;;;;;13.10;10.93;;;;;;;10.12;94.87;97272.81;5113497;28;20392;-60
2021/09/23 05:21:59;;;;;;;12.60;10.80;;;;;;;10.14;95.01;97265.53;5112356;28;20419;-61
2021/09/23 05:24:24;;;;;;;12.67;10.40;;;;;;;10.26;95.07;97258.66;5113234;28;20400;-60
2021/09/23 05:26:50;;;;;;;13.10;10.38;;;;;;;10.35;94.19;97246.91;5094913;28;20431;-60
2021/09/23 05:29:15;;;;;;;12.27;10.67;;;;;;;10.47;93.35;97252.25;5112664;28;20400;-60
2021/09/23 05:31:41;;;;;;;12.93;10.77;;;;;;;10.38;94.05;97246.47;5094720;28;20745;-62
2021/09/23 05:34:06;;;;;;;12.57;9.60;;;;;;;10.56;93.14;97239.66;5112999;28;20420;-61
2021/09/23 05:36:32;;;;;;;13.00;9.77;;;;;;;10.73;92.44;97232.88;5112393;28;20486;-61
2021/09/23 05:38:59;;;;;;;10.97;8.63;;;;;;;10.88;91.45;97222.03;5112955;28;20441;-60
2021/09/23 05:41:26;;;;;;;13.68;9.27;;;;;;;10.95;91.12;97228.00;5112408;28;20933;-61
2021/09/23 05:43:51;;;;;;;10.93;9.40;;;;;;;11.03;89.92;97219.88;5112274;28;20871;-61
2021/09/23 05:46:17;;;;;;;10.10;8.85;;;;;;;11.08;89.66;97227.88;5112699;28;20392;-60
2021/09/23 05:48:42;;;;;;;11.13;8.27;;;;;;;11.25;88.85;97218.41;5112409;28;20469;-61
2021/09/23 05:51:07;;;;;;;9.73;7.63;;;;;;;11.27;87.80;97209.28;5112063;28;20400;-61
2021/09/23 05:53:33;;;;;;;10.17;7.50;;;;;;;11.37;86.95;97200.09;5112147;28;20385;-61
2021/09/23 05:55:58;;;;;;;8.75;7.47;;;;;;;11.55;86.75;97200.84;5093498;28;20905;-61
2021/09/23 05:58:24;;;;;;;10.37;7.53;;;;;;;11.70;85.27;97197.03;5112048;28;20388;-61
2021/09/23 06:00:49;;;;;;;9.83;7.47;;;;;;;11.77;84.66;97203.81;5111859;28;20388;-61
2021/09/23 06:03:14;;;;;;;8.20;7.37;;;;;;;11.79;84.08;97212.28;5112232;28;20847;-61
2021/09/23 06:05:40;;;;;;;10.00;7.63;;;;;;;11.95;83.55;97209.00;5112145;28;20441;-61
2021/09/23 06:08:05;;;;;;;9.57;7.05;;;;;;;12.13;82.75;97204.72;5111494;28;20381;-63
2021/09/23 06:10:30;;;;;;;11.10;7.77;;;;;;;12.27;81.72;97201.66;5111999;28;20928;-61
2021/09/23 06:12:56;;;;;;;8.70;7.00;;;;;;;12.31;80.97;97197.56;5112121;28;20429;-61
2021/09/23 06:15:22;;;;;;;7.40;6.37;;;;;;;12.37;80.53;97206.38;5111933;28;20527;-63
2021/09/23 06:17:47;;;;;;;10.32;7.13;;;;;;;12.34;80.68;97214.69;5112373;28;20402;-63
2021/09/23 06:20:13;;;;;;;8.50;7.20;;;;;;;12.55;79.88;97211.50;5111608;28;20481;-63
2021/09/23 06:22:38;;;;;;;9.68;6.88;;;;;;;12.61;79.38;97218.47;5111877;28;20438;-62
2021/09/23 06:25:04;;;;;;;7.72;6.60;;;;;;;12.77;78.91;97220.41;5111610;28;20836;-64
2021/09/23 06:27:30;;;;;;;8.50;6.27;;;;;;;12.93;78.59;97217.09;5112094;28;20764;-65
2021/09/23 06:29:55;;;;;;;7.60;6.20;;;;;;;13.05;77.69;97218.91;5112289;28;20479;-62
2021/09/23 06:32:21;;;;;;;11.93;7.00;;;;;;;13.23;77.24;97222.22;5111980;28;20388;-63
2021/09/23 06:34:46;;;;;;;8.33;6.30;;;;;;;13.37;76.52;97228.06;5111610;28;20835;-63
2021/09/23 06:37:13;;;;;;;7.73;6.40;;;;;;;13.52;75.27;97230.97;5111696;28;20404;-63
2021/09/23 06:39:40;;;;;;;7.90;6.20;;;;;;;13.70;74.68;97233.44;5109422;28;20392;-62
2021/09/23 06:42:05;;;;;;;7.57;5.90;;;;;;;13.77;73.94;97235.91;5093220;28;20453;-63
2021/09/23 06:44:31;;;;;;;7.30;6.03;;;;;;;13.82;74.29;97237.88;5111880;28;20643;-63
2021/09/23 06:46:57;;;;;;;7.33;5.57;;;;;;;14.02;73.41;97233.75;5113255;28;20413;-63
2021/09/23 06:49:23;;;;;;;6.97;5.40;;;;;;;13.99;73.21;97244.75;5113088;28;20764;-63
2021/09/23 06:51:50;;;;;;;8.07;4.67;;;;;;;13.94;74.75;97252.56;5112752;28;20183;-63
2021/09/23 06:54:16;;;;;;;7.83;5.60;;;;;;;13.96;73.17;97245.22;5112728;28;20241;-63
2021/09/23 06:56:41;;;;;;;10.00;5.23;;;;;;;14.25;71.86;97255.75;5113253;28;20621;-63
2021/09/23 06:59:07;;;;;;;7.27;5.07;;;;;;;14.40;71.51;97251.56;5111151;28;20648;-63
2021/09/23 07:01:34;;;;;;;9.57;5.17;;;;;;;14.55;70.92;97235.16;5112339;28;20184;-63
2021/09/23 07:03:59;;;;;;;6.77;4.53;;;;;;;14.88;70.38;97226.41;5110554;28;20197;-63
2021/09/23 07:06:25;;;;;;;4.93;4.40;;;;;;;14.97;69.29;97222.34;5112923;28;20192;-63
2021/09/23 07:08:50;;;;;;;4.87;3.83;;;;;;;15.24;68.68;97217.94;5106687;28;20513;-63
2021/09/23 07:11:16;;;;;;;8.23;4.73;;;;;;;15.37;67.64;97220.22;5112962;28;20237;-63
2021/09/23 07:13:41;;;;;;;5.90;4.50;;;;;;;15.54;67.17;97233.41;5112731;28;20221;-63
2021/09/23 07:16:07;;;;;;;8.37;4.53;;;;;;;15.60;66.60;97236.91;5112918;28;20252;-63
2021/09/23 07:18:33;;;;;;;5.47;4.00;;;;;;;15.58;67.24;97236.34;5112506;28;20180;-64
2021/09/23 07:20:59;;;;;;;6.73;4.57;;;;;;;15.85;66.17;97241.66;5112282;28;20319;-63
2021/09/23 07:23:25;;;;;;;6.17;3.53;;;;;;;15.80;66.62;97242.41;5109302;28;20240;-63
2021/09/23 07:25:53;;;;;;;7.53;4.20;;;;;;;15.79;66.73;97244.25;5112039;28;20187;-63
2021/09/23 07:28:19;;;;;;;7.53;4.07;;;;;;;15.80;66.71;97242.41;5094854;28;20539;-63
2021/09/23 07:30:45;;;;;;;5.50;4.13;;;;;;;15.76;67.03;97241.31;5112451;28;20180;-63
2021/09/23 07:33:10;;;;;;;7.33;3.97;;;;;;;15.86;66.68;97249.34;5112362;28;20179;-63
2021/09/23 07:35:36;;;;;;;4.80;4.17;;;;;;;15.72;66.67;97238.34;5094325;28;20202;-64
2021/09/23 07:38:02;;;;;;;7.80;4.50;;;;;;;15.98;65.61;97242.06;5111915;28;20187;-64
2021/09/23 07:40:28;;;;;;;5.57;4.27;;;;;;;16.13;65.45;97231.63;5112066;28;20184;-64
2021/09/23 07:42:54;;;;;;;6.70;4.50;;;;;;;16.09;65.36;97235.03;5111970;28;20176;-64
2021/09/23 07:45:20;;;;;;;6.93;4.27;;;;;;;16.11;65.65;97232.91;5112268;28;20191;-64
2021/09/23 07:47:45;;;;;;;8.87;4.20;;;;;;;16.05;65.44;97232.06;5112682;28;20199;-63
2021/09/23 07:50:11;;;;;;;5.37;4.30;;;;;;;15.98;65.89;97231.50;5094460;28;20244;-64
2021/09/23 07:52:37;;;;;;;7.43;4.47;;;;;;;16.05;65.58;97232.06;5111924;28;20324;-64
2021/09/23 07:55:04;;;;;;;6.97;4.50;;;;;;;16.07;66.01;97234.47;5113887;28;20672;-64
2021/09/23 07:57:29;;;;;;;6.43;4.33;;;;;;;16.25;65.07;97239.41;5116547;28;20238;-64
2021/09/23 07:59:55;;;;;;;5.43;3.97;;;;;;;16.21;65.26;97244.41;5115770;28;20592;-64
2021/09/23 08:02:20;;;;;;;7.43;4.20;;;;;;;16.25;65.04;97238.59;5116188;28;20176;-64
2021/09/23 08:04:46;;;;;;;5.70;4.07;;;;;;;16.39;65.50;97235.28;5115703;28;20214;-64
2021/09/23 08:07:17;;;;;;;8.20;4.47;;;;;;;16.36;66.08;97238.44;5115534;28;20233;-64
2021/09/23 08:09:43;;;;;;;5.83;3.90;;;;;;;16.44;66.23;97245.13;5116208;28;20188;-64
2021/09/23 08:12:10;;;;;;;5.37;4.10;;;;;;;16.56;65.91;97233.31;5094540;28;20315;-64
2021/09/23 08:14:36;;;;;;;5.63;4.10;;;;;;;16.58;65.14;97248.94;5116014;28;20176;-64
2021/09/23 08:17:02;;;;;;;6.87;4.47;;;;;;;16.54;65.10;97243.38;5116044;28;20204;-64
2021/09/23 08:19:27;;;;;;;4.47;3.83;;;;;;;16.50;64.87;97252.84;5116203;28;20190;-63
2021/09/23 08:21:53;;;;;;;5.17;4.27;;;;;;;16.65;64.26;97246.91;5115866;28;20966;-64
2021/09/23 08:24:20;;;;;;;6.87;3.60;;;;;;;16.74;63.17;97242.72;5115458;28;20188;-64
2021/09/23 08:26:46;;;;;;;5.30;3.97;;;;;;;16.81;62.57;97245.16;5114730;28;20180;-63
2021/09/23 08:29:11;;;;;;;6.43;3.80;;;;;;;16.92;61.82;97236.25;5115371;28;20191;-63
2021/09/23 08:31:37;;;;;;;6.70;4.00;;;;;;;16.77;62.52;97238.78;5115835;28;20632;-63
2021/09/23 08:34:03;;;;;;;9.30;4.70;;;;;;;16.82;62.69;97241.47;5096872;28;20204;-63
2021/09/23 08:36:29;;;;;;;4.10;3.27;;;;;;;16.74;61.17;97234.78;5115089;28;20823;-64
2021/09/23 08:38:54;;;;;;;4.10;3.50;;;;;;;16.91;60.93;97232.00;5115620;28;20306;-64
2021/09/23 08:41:20;;;;;;;4.40;3.40;;;;;;;16.76;60.98;97234.53;5115462;28;20180;-63
2021/09/23 08:43:45;;;;;;;4.87;3.70;;;;;;;16.86;60.47;97227.47;5113006;28;20547;-63
2021/09/23 08:46:11;;;;;;;6.97;4.20;;;;;;;16.79;61.62;97226.88;5115459;28;20180;-63
2021/09/23 08:48:36;;;;;;;9.13;4.63;;;;;;;16.70;62.67;97228.41;5114362;28;20233;-63
2021/09/23 08:51:02;;;;;;;4.40;3.43;;;;;;;16.79;62.40;97226.88;5115124;28;20640;-64
2021/09/23 08:53:28;;;;;;;4.60;3.83;;;;;;;16.84;61.19;97220.81;5115199;28;20187;-64
2021/09/23 08:55:54;;;;;;;9.93;3.90;;;;;;;16.75;61.61;97214.41;5114021;28;20234;-64
2021/09/23 08:58:20;;;;;;;8.00;3.60;;;;;;;16.90;61.55;97219.78;5115263;28;20263;-63
2021/09/23 09:01:07;;;;;;;6.37;3.53;;;;;;;16.92;62.00;97223.78;5113477;28;20882;-64
2021/09/23 09:03:33;;;;;;;3.53;3.13;;;;;;;16.95;60.23;97223.28;5114307;28;20317;-64
2021/09/23 09:06:01;;;;;;;4.23;3.07;;;;;;;16.88;59.75;97219.28;5114315;28;20188;-64
2021/09/23 09:08:31;;;;;;;3.73;2.80;;;;;;;16.95;59.43;97219.81;5113946;28;20179;-63
2021/09/23 09:10:56;;;;;;;3.73;3.00;;;;;;;16.82;60.19;97215.78;5115163;28;20192;-63
2021/09/23 09:13:22;;;;;;;4.13;2.57;;;;;;;16.90;60.62;97217.16;5115652;28;20187;-63
2021/09/23 09:15:47;;;;;;;4.37;3.10;;;;;;;16.78;60.63;97219.97;5114711;28;20203;-63
2021/09/23 09:18:15;;;;;;;5.03;3.50;;;;;;;17.02;60.29;97215.91;5114848;28;20672;-64
2021/09/23 09:20:51;;;;;;;5.47;4.37;;;;;;;17.02;60.01;97207.16;5115147;28;20192;-63
2021/09/23 09:23:17;;;;;;;5.00;3.17;;;;;;;17.02;60.00;97209.81;5114139;28;20247;-63
2021/09/23 09:25:42;;;;;;;4.33;2.73;;;;;;;16.99;60.74;97207.69;5114135;28;20688;-63
2021/09/23 09:28:08;;;;;;;2.90;2.57;;;;;;;17.04;59.67;97205.06;5095407;28;20187;-63
2021/09/23 09:30:36;;;;;;;3.57;3.10;;;;;;;16.89;60.42;97197.81;5114509;28;20208;-64
2021/09/23 09:33:02;;;;;;;4.70;2.80;;;;;;;17.10;59.89;97185.50;5113806;28;21796;-63
2021/09/23 09:35:30;;;;;;;4.77;2.63;;;;;;;17.14;60.55;97188.41;5113954;28;20184;-63
2021/09/23 09:37:58;;;;;;;3.03;2.70;;;;;;;17.01;59.39;97190.47;5114119;28;20275;-63
2021/09/23 09:40:27;;;;;;;3.77;2.60;;;;;;;17.07;59.81;97190.50;5096133;28;20180;-63
2021/09/23 09:42:54;;;;;;;3.33;2.80;;;;;;;17.20;59.80;97190.03;5094510;28;20180;-63
2021/09/23 09:45:23;;;;;;;6.00;3.00;;;;;;;17.14;60.76;97186.56;5113811;28;20192;-64
2021/09/23 09:47:55;;;;;;;7.33;3.00;;;;;;;17.20;60.23;97184.72;5113952;28;20700;-63
2021/09/23 09:50:27;;;;;;;4.03;2.70;;;;;;;17.28;60.03;97182.38;5114100;28;20296;-63
2021/09/23 09:52:58;;;;;;;3.47;2.47;;;;;;;17.44;59.92;97184.00;5113753;28;20180;-63
2021/09/23 09:55:30;;;;;;;6.63;2.73;;;;;;;17.46;60.75;97179.25;5112981;28;20232;-64
2021/09/23 09:57:55;;;;;;;3.60;2.47;;;;;;;17.53;60.17;97171.06;5113349;28;20222;-63
2021/09/23 10:00:22;;;;;;;2.87;2.60;;;;;;;17.65;59.64;97166.38;5111655;28;20196;-64
2021/09/23 10:02:48;;;;;;;3.87;2.30;;;;;;;17.85;59.21;97165.59;5095697;28;20708;-64
2021/09/23 10:05:16;;;;;;;2.70;2.50;;;;;;;17.84;59.17;97162.16;5114256;28;20198;-63
2021/09/23 10:07:47;;;;;;;2.40;2.20;;;;;;;17.68;59.08;97155.22;5113272;28;20192;-63
2021/09/23 10:10:15;;;;;;;2.47;2.27;;;;;;;17.76;60.03;97151.28;5114136;28;20179;-64
2021/09/23 10:12:42;;;;;;;2.50;2.30;;;;;;;17.78;59.88;97152.59;5113695;28;20187;-64
2021/09/23 10:15:14;;;;;;;3.07;2.40;;;;;;;18.00;59.63;97148.91;5113369;28;20198;-64
2021/09/23 10:17:42;;;;;;;2.43;2.23;;;;;;;18.05;59.23;97156.88;5112356;28;20245;-64
2021/09/23 10:20:08;;;;;;;2.80;2.60;;;;;;;18.08;58.38;97143.06;5113119;28;20184;-63
2021/09/23 10:22:34;;;;;;;2.57;2.37;;;;;;;18.04;59.15;97140.16;5112846;28;20532;-63
2021/09/23 10:25:02;;;;;;;3.43;2.30;;;;;;;18.11;58.76;97150.50;5112332;28;20188;-64
2021/09/23 10:30:13;;;;;;;3.27;2.53;;;;;;;18.39;58.41;97143.88;5113353;28;20260;-63
2021/09/23 10:32:40;;;;;;;3.60;2.60;;;;;;;18.26;58.44;97142.53;5113487;28;20180;-63
2021/09/23 10:35:06;;;;;;;2.73;2.40;;;;;;;18.35;58.68;97140.94;5112704;28;20192;-64
2021/09/23 10:37:33;;;;;;;2.80;2.20;;;;;;;18.37;59.14;97136.16;5113023;28;20261;-64
2021/09/23 10:39:59;;;;;;;2.47;2.28;;;;;;;18.55;58.99;97135.66;5112674;28;20176;-63
2021/09/23 10:42:25;;;;;;;3.10;2.63;;;;;;;18.65;58.06;97134.81;5112483;28;20187;-64
2021/09/23 10:44:53;;;;;;;2.50;2.30;;;;;;;18.76;57.22;97136.38;5112304;28;20191;-63
2021/09/23 10:47:32;;;;;;;3.43;2.37;;;;;;;18.77;56.63;97134.53;5112979;28;20230;-64
2021/09/23 10:49:58;;;;;;;3.22;1.90;;;;;;;18.77;55.74;97126.56;5111624;28;20180;-64
2021/09/23 10:52:25;;;;;;;2.58;1.73;;;;;;;18.84;55.99;97133.16;5094314;28;20640;-64
2021/09/23 10:54:54;;;;;;;2.80;1.98;;;;;;;18.94;55.31;97135.81;5112400;28;20231;-64
2021/09/23 10:57:21;;;;;;;2.00;1.90;;;;;;;19.09;55.13;97135.75;5111987;28;20196;-64
2021/09/23 10:59:50;;;;;;;1.70;1.60;;;;;;;18.83;55.11;97136.09;5112786;28;20175;-63
2021/09/23 11:02:26;;;;;;;3.65;2.10;;;;;;;18.85;55.37;97133.97;5113072;28;20638;-64
2021/09/23 11:04:57;;;;;;;2.55;1.50;;;;;;;19.08;54.27;97128.84;5106636;28;20183;-63
2021/09/23 11:07:24;;;;;;;1.80;1.70;;;;;;;19.24;53.59;97131.41;5094176;28;20624;-64
2021/09/23 11:10:18;;;;;;;1.60;1.50;;;;;;;19.16;53.98;97121.38;5111823;28;20168;-64
2021/09/23 11:12:48;;;;;;;1.70;1.40;;;;;;;19.42;53.18;97128.94;5112855;28;20262;-64
2021/09/23 11:15:15;;;;;;;1.73;1.50;;;;;;;19.57;52.57;97128.06;5108818;28;20342;-64
2021/09/23 11:17:42;;;;;;;1.80;1.55;;;;;;;19.58;53.17;97124.34;5111617;28;20656;-64
2021/09/23 11:20:12;;;;;;;1.60;1.50;;;;;;;19.70;53.17;97122.16;5112360;28;20180;-64
2021/09/23 11:22:47;;;;;;;1.50;1.40;;;;;;;19.78;52.97;97121.56;5112441;28;20224;-64
2021/09/23 11:25:19;;;;;;;2.17;1.73;;;;;;;19.79;52.46;97117.81;5112144;28;20203;-64
2021/09/23 11:27:46;;;;;;;2.10;1.60;;;;;;;19.77;52.75;97117.31;5112646;28;20513;-64
2021/09/23 11:30:16;;;;;;;1.92;1.60;;;;;;;19.92;51.85;97103.91;5098439;28;20203;-64
2021/09/23 11:32:45;;;;;;;3.30;1.70;;;;;;;19.95;52.33;97107.84;5116437;28;20222;-64